createdAt,value
2023-04-02T00:00:33.890Z,193.74
2023-04-02T00:01:33.862Z,192.20
2023-04-02T00:02:33.956Z,190.98
2023-04-02T00:03:33.960Z,192.93
2023-04-02T00:04:33.846Z,195.12
2023-04-02T00:05:34.204Z,192.28
2023-04-02T00:06:33.880Z,191.71
2023-04-02T00:07:33.869Z,191.16
2023-04-02T00:08:33.864Z,189.91
2023-04-02T00:09:33.912Z,190.59
2023-04-02T00:10:33.918Z,189.48
2023-04-02T00:11:33.900Z,189.77
2023-04-02T00:12:33.898Z,191.81
2023-04-02T00:13:33.953Z,189.76
2023-04-02T00:14:33.920Z,188.86
2023-04-02T00:15:34.196Z,189.69
2023-04-02T00:16:33.931Z,189.41
2023-04-02T00:17:33.916Z,187.63
2023-04-02T00:18:34.009Z,186.82
2023-04-02T00:19:33.916Z,185.79
2023-04-02T00:20:33.926Z,186.64
2023-04-02T00:21:33.881Z,187.07
2023-04-02T00:22:33.890Z,186.65
2023-04-02T00:23:33.906Z,188.00
2023-04-02T00:24:33.877Z,185.93
2023-04-02T00:25:34.016Z,185.44
2023-04-02T00:26:33.851Z,187.93
2023-04-02T00:27:33.824Z,186.84
2023-04-02T00:28:33.832Z,185.35
2023-04-02T00:29:33.801Z,186.95
2023-04-02T00:30:33.783Z,188.96
2023-04-02T00:31:33.834Z,186.71
2023-04-02T00:32:33.863Z,185.68
2023-04-02T00:33:33.793Z,186.47
2023-04-02T00:34:33.831Z,187.12
2023-04-02T00:35:33.954Z,187.02
2023-04-02T00:36:33.778Z,186.83
2023-04-02T00:37:33.764Z,186.33
2023-04-02T00:38:33.774Z,187.92
2023-04-02T00:39:33.844Z,184.68
2023-04-02T00:40:33.819Z,186.11
2023-04-02T00:41:33.834Z,185.32
2023-04-02T00:42:33.831Z,187.15
2023-04-02T00:43:33.851Z,186.59
2023-04-02T00:44:33.814Z,185.72
2023-04-02T00:45:34.068Z,187.66
2023-04-02T00:46:33.833Z,186.00
2023-04-02T00:47:33.847Z,184.31
2023-04-02T00:48:33.807Z,184.08
2023-04-02T00:49:33.798Z,183.89
2023-04-02T00:50:33.753Z,183.99
2023-04-02T00:51:33.721Z,184.04
2023-04-02T00:52:33.732Z,182.48
2023-04-02T00:53:33.741Z,184.66
2023-04-02T00:54:33.716Z,183.82
2023-04-02T00:55:33.959Z,183.79
2023-04-02T00:56:33.694Z,183.74
2023-04-02T00:57:33.764Z,182.42
2023-04-02T00:58:33.708Z,182.55
2023-04-02T00:59:33.731Z,182.53
2023-04-02T01:00:33.688Z,179.66
2023-04-02T01:01:33.729Z,182.89
2023-04-02T01:02:33.787Z,180.76
2023-04-02T01:03:33.901Z,183.45
2023-04-02T01:04:33.665Z,183.15
2023-04-02T01:05:33.869Z,180.69
2023-04-02T01:06:33.646Z,180.07
2023-04-02T01:07:33.650Z,180.37
2023-04-02T01:08:33.682Z,183.25
2023-04-02T01:09:33.677Z,182.23
2023-04-02T01:10:33.693Z,180.16
2023-04-02T01:11:33.710Z,180.48
2023-04-02T01:12:33.665Z,180.29
2023-04-02T01:13:33.665Z,182.44
2023-04-02T01:14:33.702Z,182.61
2023-04-02T01:15:33.968Z,183.20
2023-04-02T01:16:33.696Z,179.43
2023-04-02T01:17:33.726Z,179.24
2023-04-02T01:18:33.681Z,178.02
2023-04-02T01:19:33.701Z,179.86
2023-04-02T01:20:33.711Z,181.84
2023-04-02T01:21:33.692Z,181.41
2023-04-02T01:22:33.696Z,180.09
2023-04-02T01:23:33.663Z,179.90
2023-04-02T01:24:33.686Z,180.49
2023-04-02T01:25:33.980Z,179.73
2023-04-02T01:26:33.647Z,177.22
2023-04-02T01:27:33.657Z,179.74
2023-04-02T01:28:33.664Z,179.00
2023-04-02T01:29:33.636Z,177.46
2023-04-02T01:30:33.611Z,178.12
2023-04-02T01:31:33.645Z,180.03
2023-04-02T01:32:33.636Z,178.80
2023-04-02T01:33:33.650Z,179.29
2023-04-02T01:34:33.646Z,178.67
2023-04-02T01:35:33.963Z,179.77
2023-04-02T01:36:33.609Z,181.21
2023-04-02T01:37:34.015Z,178.73
2023-04-02T01:38:33.616Z,180.93
2023-04-02T01:39:33.647Z,179.31
2023-04-02T01:40:33.639Z,178.24
2023-04-02T01:41:33.619Z,179.91
2023-04-02T01:42:33.624Z,178.55
2023-04-02T01:43:33.624Z,179.70
2023-04-02T01:44:33.586Z,178.86
2023-04-02T01:45:33.811Z,182.10
2023-04-02T01:46:33.609Z,179.54
2023-04-02T01:47:33.555Z,179.83
2023-04-02T01:48:33.553Z,181.06
2023-04-02T01:49:33.605Z,178.99
2023-04-02T01:50:33.582Z,174.51
2023-04-02T01:51:33.593Z,179.20
2023-04-02T01:52:33.592Z,177.94
2023-04-02T01:53:33.611Z,178.97
2023-04-02T01:54:33.596Z,177.49
2023-04-02T01:55:33.837Z,178.92
2023-04-02T01:56:33.577Z,180.19
2023-04-02T01:57:33.609Z,177.43
2023-04-02T01:58:33.604Z,175.90
2023-04-02T01:59:33.566Z,177.90
2023-04-02T02:00:33.576Z,179.01
2023-04-02T02:01:33.519Z,177.56
2023-04-02T02:02:33.658Z,175.96
2023-04-02T02:03:33.538Z,178.76
2023-04-02T02:04:33.569Z,176.33
2023-04-02T02:05:33.747Z,175.14
2023-04-02T02:06:33.561Z,174.84
2023-04-02T02:07:33.553Z,176.40
2023-04-02T02:08:33.524Z,175.49
2023-04-02T02:09:33.535Z,179.73
2023-04-02T02:10:33.544Z,174.95
2023-04-02T02:11:33.536Z,175.96
2023-04-02T02:12:33.525Z,173.98
2023-04-02T02:13:33.544Z,176.37
2023-04-02T02:14:33.516Z,174.05
2023-04-02T02:15:33.854Z,175.28
2023-04-02T02:16:33.506Z,176.77
2023-04-02T02:17:33.571Z,179.77
2023-04-02T02:18:33.500Z,177.92
2023-04-02T02:19:33.454Z,182.50
2023-04-02T02:20:33.460Z,183.22
2023-04-02T02:21:33.480Z,183.41
2023-04-02T02:22:33.486Z,182.22
2023-04-02T02:23:33.496Z,182.83
2023-04-02T02:24:33.534Z,187.23
2023-04-02T02:25:33.813Z,185.85
2023-04-02T02:26:33.522Z,186.23
2023-04-02T02:27:33.516Z,185.55
2023-04-02T02:28:33.570Z,187.51
2023-04-02T02:29:33.591Z,186.39
2023-04-02T02:30:33.615Z,186.18
2023-04-02T02:31:33.593Z,187.49
2023-04-02T02:32:33.583Z,187.24
2023-04-02T02:33:33.604Z,187.40
2023-04-02T02:34:33.574Z,189.54
2023-04-02T02:35:34.003Z,186.97
2023-04-02T02:36:33.620Z,188.57
2023-04-02T02:37:33.597Z,187.85
2023-04-02T02:38:33.564Z,189.95
2023-04-02T02:39:33.563Z,186.54
2023-04-02T02:40:33.576Z,189.09
2023-04-02T02:41:33.555Z,189.20
2023-04-02T02:42:33.557Z,187.62
2023-04-02T02:43:33.488Z,189.65
2023-04-02T02:44:33.502Z,190.91
2023-04-02T02:45:33.824Z,191.80
2023-04-02T02:46:33.470Z,188.53
2023-04-02T02:47:33.504Z,187.90
2023-04-02T02:48:34.055Z,190.18
2023-04-02T02:49:33.477Z,189.68
2023-04-02T02:50:33.484Z,189.05
2023-04-02T02:51:33.444Z,189.99
2023-04-02T02:52:33.449Z,190.21
2023-04-02T02:53:33.464Z,188.02
2023-04-02T02:54:33.487Z,187.69
2023-04-02T02:55:33.726Z,189.28
2023-04-02T02:56:33.511Z,188.67
2023-04-02T02:57:33.554Z,190.08
2023-04-02T02:58:33.500Z,189.75
2023-04-02T02:59:33.529Z,187.08
2023-04-02T03:00:33.539Z,188.63
2023-04-02T03:01:33.607Z,189.27
2023-04-02T03:02:33.645Z,188.47
2023-04-02T03:03:33.620Z,188.54
2023-04-02T03:04:33.493Z,189.86
2023-04-02T03:05:33.771Z,188.03
2023-04-02T03:06:33.539Z,187.78
2023-04-02T03:07:33.462Z,189.70
2023-04-02T03:08:33.493Z,186.46
2023-04-02T03:09:33.471Z,189.11
2023-04-02T03:10:33.436Z,189.27
2023-04-02T03:11:33.449Z,188.65
2023-04-02T03:12:33.413Z,188.13
2023-04-02T03:13:33.435Z,189.12
2023-04-02T03:14:33.392Z,189.23
2023-04-02T03:15:33.596Z,186.11
2023-04-02T03:16:33.368Z,188.82
2023-04-02T03:17:33.397Z,190.69
2023-04-02T03:18:33.373Z,190.14
2023-04-02T03:19:33.372Z,189.99
2023-04-02T03:20:33.351Z,190.24
2023-04-02T03:21:33.367Z,191.71
2023-04-02T03:22:33.320Z,191.95
2023-04-02T03:23:33.306Z,191.39
2023-04-02T03:24:33.297Z,190.33
2023-04-02T03:25:33.541Z,191.97
2023-04-02T03:26:33.305Z,192.47
2023-04-02T03:27:33.252Z,192.28
2023-04-02T03:28:33.264Z,189.54
2023-04-02T03:29:33.226Z,189.97
2023-04-02T03:30:33.235Z,190.92
2023-04-02T03:31:33.278Z,191.82
2023-04-02T03:32:33.207Z,189.05
2023-04-02T03:33:33.198Z,192.79
2023-04-02T03:34:33.125Z,192.06
2023-04-02T03:35:33.372Z,191.66
2023-04-02T03:36:33.106Z,192.08
2023-04-02T03:37:33.074Z,190.89
2023-04-02T03:38:33.089Z,191.59
2023-04-02T03:39:33.055Z,192.68
2023-04-02T03:40:33.068Z,193.00
2023-04-02T03:41:33.046Z,191.49
2023-04-02T03:42:33.023Z,194.53
2023-04-02T03:43:33.034Z,193.68
2023-04-02T03:44:32.991Z,191.57
2023-04-02T03:45:33.079Z,193.27
2023-04-02T03:46:33.085Z,194.10
2023-04-02T03:47:33.071Z,195.52
2023-04-02T03:48:33.011Z,198.30
2023-04-02T03:49:32.963Z,197.90
2023-04-02T03:50:32.994Z,195.95
2023-04-02T03:51:32.950Z,196.27
2023-04-02T03:52:32.962Z,195.61
2023-04-02T03:53:32.951Z,196.08
2023-04-02T03:54:32.967Z,197.78
2023-04-02T03:55:33.110Z,196.47
2023-04-02T03:56:32.904Z,197.22
2023-04-02T03:57:32.995Z,195.57
2023-04-02T03:58:32.885Z,198.69
2023-04-02T03:59:32.888Z,197.82
2023-04-02T04:00:32.822Z,197.39
2023-04-02T04:01:32.883Z,195.83
2023-04-02T04:02:32.859Z,198.30
2023-04-02T04:03:32.882Z,197.40
2023-04-02T04:04:32.909Z,194.97
2023-04-02T04:05:33.168Z,195.97
2023-04-02T04:06:32.845Z,195.29
2023-04-02T04:07:32.844Z,195.01
2023-04-02T04:08:32.808Z,197.41
2023-04-02T04:09:32.789Z,196.23
2023-04-02T04:10:32.789Z,198.44
2023-04-02T04:11:32.783Z,201.23
2023-04-02T04:12:32.781Z,199.35
2023-04-02T04:13:32.786Z,200.78
2023-04-02T04:14:32.770Z,196.43
2023-04-02T04:15:32.918Z,199.17
2023-04-02T04:16:32.753Z,201.32
2023-04-02T04:17:32.753Z,202.29
2023-04-02T04:18:32.679Z,204.47
2023-04-02T04:19:32.679Z,199.86
2023-04-02T04:20:32.691Z,200.96
2023-04-02T04:21:32.661Z,200.56
2023-04-02T04:22:32.717Z,196.92
2023-04-02T04:23:32.668Z,202.98
2023-04-02T04:24:32.655Z,204.45
2023-04-02T04:25:32.621Z,198.79
2023-04-02T04:26:32.635Z,196.87
2023-04-02T04:27:32.619Z,198.54
2023-04-02T04:28:32.604Z,200.28
2023-04-02T04:29:32.587Z,198.42
2023-04-02T04:30:32.586Z,198.11
2023-04-02T04:31:32.582Z,200.94
2023-04-02T04:32:32.635Z,201.28
2023-04-02T04:33:32.555Z,200.33
2023-04-02T04:34:32.565Z,204.16
2023-04-02T04:35:32.675Z,202.52
2023-04-02T04:36:32.534Z,203.72
2023-04-02T04:37:32.564Z,202.05
2023-04-02T04:38:32.612Z,203.45
2023-04-02T04:39:32.571Z,203.22
2023-04-02T04:40:32.632Z,201.53
2023-04-02T04:41:32.579Z,200.91
2023-04-02T04:42:32.568Z,207.30
2023-04-02T04:43:32.549Z,204.07
2023-04-02T04:44:32.555Z,200.06
2023-04-02T04:45:32.704Z,202.92
2023-04-02T04:46:32.538Z,203.30
2023-04-02T04:47:32.563Z,201.76
2023-04-02T04:48:33.529Z,205.02
2023-04-02T04:49:32.660Z,201.38
2023-04-02T04:50:32.684Z,199.57
2023-04-02T04:51:32.657Z,205.40
2023-04-02T04:52:32.650Z,206.70
2023-04-02T04:53:32.607Z,204.91
2023-04-02T04:54:32.623Z,207.39
2023-04-02T04:55:32.666Z,206.93
2023-04-02T04:56:32.548Z,203.79
2023-04-02T04:57:32.547Z,205.63
2023-04-02T04:58:32.554Z,201.76
2023-04-02T04:59:32.520Z,205.54
2023-04-02T05:00:32.519Z,204.74
2023-04-02T05:01:32.531Z,203.94
2023-04-02T05:02:32.489Z,201.44
2023-04-02T05:03:32.440Z,201.59
2023-04-02T05:04:32.429Z,201.55
2023-04-02T05:05:32.423Z,198.21
2023-04-02T05:06:32.364Z,202.28
2023-04-02T05:07:32.377Z,202.95
2023-04-02T05:08:32.358Z,199.04
2023-04-02T05:09:32.347Z,200.71
2023-04-02T05:10:32.307Z,203.09
2023-04-02T05:11:32.313Z,199.38
2023-04-02T05:12:32.300Z,201.18
2023-04-02T05:13:32.277Z,197.95
2023-04-02T05:14:32.283Z,199.81
2023-04-02T05:15:32.316Z,199.17
2023-04-02T05:16:32.314Z,201.26
2023-04-02T05:17:32.311Z,199.04
2023-04-02T05:18:32.246Z,202.72
2023-04-02T05:19:32.236Z,199.16
2023-04-02T05:20:32.219Z,200.61
2023-04-02T05:21:32.223Z,198.12
2023-04-02T05:22:32.234Z,198.27
2023-04-02T05:23:32.228Z,200.70
2023-04-02T05:24:32.177Z,195.86
2023-04-02T05:25:32.151Z,197.58
2023-04-02T05:26:32.183Z,202.25
2023-04-02T05:27:32.182Z,200.27
2023-04-02T05:28:32.198Z,198.08
2023-04-02T05:29:32.176Z,197.66
2023-04-02T05:30:32.164Z,201.19
2023-04-02T05:31:32.189Z,199.71
2023-04-02T05:32:32.154Z,201.31
2023-04-02T05:33:32.120Z,199.00
2023-04-02T05:34:32.113Z,202.41
2023-04-02T05:35:32.085Z,195.90
2023-04-02T05:36:32.066Z,198.08
2023-04-02T05:37:32.043Z,195.01
2023-04-02T05:38:32.060Z,197.88
2023-04-02T05:39:32.052Z,201.84
2023-04-02T05:40:32.049Z,198.44
2023-04-02T05:41:32.010Z,195.58
2023-04-02T05:42:31.965Z,195.22
2023-04-02T05:43:31.966Z,194.09
2023-04-02T05:44:31.983Z,195.78
2023-04-02T05:45:31.988Z,194.88
2023-04-02T05:46:31.956Z,195.85
2023-04-02T05:47:31.979Z,195.73
2023-04-02T05:48:31.984Z,194.95
2023-04-02T05:49:32.027Z,195.38
2023-04-02T05:50:32.066Z,195.12
2023-04-02T05:51:32.058Z,193.92
2023-04-02T05:52:32.116Z,195.87
2023-04-02T05:53:32.131Z,195.46
2023-04-02T05:54:32.209Z,197.66
2023-04-02T05:55:32.233Z,195.61
2023-04-02T05:56:32.278Z,198.26
2023-04-02T05:57:42.405Z,196.26
2023-04-02T05:58:36.135Z,196.59
2023-04-02T05:59:32.226Z,196.72
2023-04-02T06:00:32.218Z,196.80
2023-04-02T06:01:32.198Z,197.77
2023-04-02T06:02:32.273Z,198.23
2023-04-02T06:03:32.208Z,199.11
2023-04-02T06:04:32.116Z,196.56
2023-04-02T06:05:32.075Z,197.19
2023-04-02T06:06:32.032Z,197.32
2023-04-02T06:07:32.014Z,198.33
2023-04-02T06:08:31.972Z,197.44
2023-04-02T06:09:31.942Z,196.05
2023-04-02T06:10:31.916Z,193.50
2023-04-02T06:11:31.888Z,197.87
2023-04-02T06:12:31.850Z,197.06
2023-04-02T06:13:31.824Z,195.64
2023-04-02T06:14:31.791Z,195.24
2023-04-02T06:15:31.784Z,196.20
2023-04-02T06:16:31.820Z,193.85
2023-04-02T06:17:31.744Z,195.14
2023-04-02T06:18:31.722Z,196.63
2023-04-02T06:19:31.659Z,197.24
2023-04-02T06:20:31.654Z,196.22
2023-04-02T06:21:31.626Z,196.22
2023-04-02T06:22:31.588Z,196.17
2023-04-02T06:23:31.564Z,192.27
2023-04-02T06:24:31.533Z,191.19
2023-04-02T06:25:31.526Z,193.20
2023-04-02T06:26:31.472Z,192.34
2023-04-02T06:27:31.492Z,195.12
2023-04-02T06:28:31.454Z,194.63
2023-04-02T06:29:31.411Z,195.05
2023-04-02T06:30:31.462Z,194.12
2023-04-02T06:31:31.443Z,191.27
2023-04-02T06:32:31.460Z,193.26
2023-04-02T06:33:31.451Z,191.49
2023-04-02T06:34:31.454Z,192.07
2023-04-02T06:35:31.456Z,191.69
2023-04-02T06:36:31.480Z,191.17
2023-04-02T06:37:31.508Z,191.61
2023-04-02T06:38:31.562Z,190.41
2023-04-02T06:39:31.515Z,190.72
2023-04-02T06:40:31.548Z,191.14
2023-04-02T06:41:31.538Z,194.71
2023-04-02T06:42:31.587Z,194.01
2023-04-02T06:43:31.559Z,192.28
2023-04-02T06:44:31.579Z,192.50
2023-04-02T06:45:31.589Z,189.74
2023-04-02T06:46:31.687Z,187.38
2023-04-02T06:47:31.638Z,188.67
2023-04-02T06:48:31.667Z,188.50
2023-04-02T06:49:31.645Z,188.94
2023-04-02T06:50:31.675Z,188.52
2023-04-02T06:51:31.677Z,188.67
2023-04-02T06:52:33.330Z,187.62
2023-04-02T06:53:31.654Z,189.57
2023-04-02T06:54:31.658Z,189.23
2023-04-02T06:55:31.709Z,189.15
2023-04-02T06:56:31.594Z,187.66
2023-04-02T06:57:31.616Z,187.84
2023-04-02T06:58:31.524Z,186.62
2023-04-02T06:59:31.552Z,184.74
2023-04-02T07:00:31.508Z,183.25
2023-04-02T07:01:31.498Z,183.79
2023-04-02T07:02:31.489Z,184.64
2023-04-02T07:03:31.450Z,185.06
2023-04-02T07:04:31.467Z,186.45
2023-04-02T07:05:31.424Z,185.26
2023-04-02T07:06:31.390Z,183.51
2023-04-02T07:07:31.361Z,180.75
2023-04-02T07:08:31.365Z,185.74
2023-04-02T07:09:31.318Z,183.97
2023-04-02T07:10:31.324Z,182.01
2023-04-02T07:11:31.261Z,185.10
2023-04-02T07:12:31.250Z,186.45
2023-04-02T07:13:31.273Z,185.38
2023-04-02T07:14:31.212Z,180.74
2023-04-02T07:15:31.198Z,180.39
2023-04-02T07:16:31.243Z,181.88
2023-04-02T07:17:31.178Z,183.90
2023-04-02T07:18:31.133Z,180.09
2023-04-02T07:19:31.105Z,179.55
2023-04-02T07:20:31.110Z,183.02
2023-04-02T07:21:31.065Z,180.56
2023-04-02T07:22:31.043Z,178.14
2023-04-02T07:23:31.031Z,179.95
2023-04-02T07:24:31.029Z,181.04
2023-04-02T07:25:31.006Z,176.84
2023-04-02T07:26:30.951Z,177.09
2023-04-02T07:27:30.966Z,175.82
2023-04-02T07:28:30.932Z,171.56
2023-04-02T07:29:30.909Z,175.46
2023-04-02T07:30:30.877Z,177.42
2023-04-02T07:31:30.895Z,178.49
2023-04-02T07:32:30.965Z,172.98
2023-04-02T07:33:30.848Z,174.68
2023-04-02T07:34:30.776Z,172.72
2023-04-02T07:35:30.739Z,174.67
2023-04-02T07:36:30.790Z,174.87
2023-04-02T07:37:30.776Z,176.11
2023-04-02T07:38:30.837Z,173.13
2023-04-02T07:39:30.852Z,171.09
2023-04-02T07:40:30.891Z,167.95
2023-04-02T07:41:30.935Z,165.44
2023-04-02T07:42:30.962Z,166.55
2023-04-02T07:43:31.028Z,168.81
2023-04-02T07:44:31.083Z,164.01
2023-04-02T07:45:31.084Z,168.55
2023-04-02T07:46:31.166Z,169.95
2023-04-02T07:47:31.235Z,170.30
2023-04-02T07:48:31.200Z,170.65
2023-04-02T07:49:31.257Z,170.29
2023-04-02T07:50:31.292Z,169.95
2023-04-02T07:51:31.298Z,168.61
2023-04-02T07:52:31.342Z,167.90
2023-04-02T07:53:31.403Z,164.19
2023-04-02T07:54:31.397Z,166.68
2023-04-02T07:55:31.453Z,167.57
2023-04-02T07:56:31.481Z,166.32
2023-04-02T07:57:31.615Z,171.45
2023-04-02T07:58:31.531Z,170.82
2023-04-02T07:59:31.564Z,171.55
2023-04-02T08:00:31.600Z,170.32
2023-04-02T08:01:31.628Z,172.72
2023-04-02T08:02:31.727Z,173.16
2023-04-02T08:03:31.783Z,169.38
2023-04-02T08:04:31.761Z,169.91
2023-04-02T08:05:31.798Z,168.16
2023-04-02T08:06:31.852Z,165.18
2023-04-02T08:07:31.885Z,164.75
2023-04-02T08:08:31.891Z,161.22
2023-04-02T08:09:31.975Z,156.32
2023-04-02T08:10:32.004Z,156.43
2023-04-02T08:11:32.089Z,158.17
2023-04-02T08:12:32.079Z,159.24
2023-04-02T08:13:32.116Z,160.34
2023-04-02T08:14:32.116Z,159.67
2023-04-02T08:15:32.246Z,159.37
2023-04-02T08:16:32.260Z,164.60
2023-04-02T08:17:32.242Z,159.31
2023-04-02T08:18:32.281Z,156.22
2023-04-02T08:19:36.857Z,151.78
2023-04-02T08:20:33.268Z,152.04
2023-04-02T08:21:32.265Z,152.30
2023-04-02T08:22:32.220Z,150.95
2023-04-02T08:23:32.295Z,148.46
2023-04-02T08:24:32.181Z,143.68
2023-04-02T08:25:32.265Z,142.56
2023-04-02T08:26:32.148Z,141.23
2023-04-02T08:27:32.160Z,142.42
2023-04-02T08:28:32.140Z,136.16
2023-04-02T08:29:32.082Z,138.61
2023-04-02T08:30:32.060Z,136.45
2023-04-02T08:31:32.059Z,135.27
2023-04-02T08:32:32.187Z,132.91
2023-04-02T08:33:32.133Z,138.56
2023-04-02T08:34:32.201Z,136.69
2023-04-02T08:35:32.175Z,138.99
2023-04-02T08:36:32.237Z,136.45
2023-04-02T08:37:32.236Z,130.08
2023-04-02T08:38:33.267Z,133.53
2023-04-02T08:39:32.325Z,135.96
2023-04-02T08:40:32.369Z,135.16
2023-04-02T08:41:32.414Z,133.95
2023-04-02T08:42:32.443Z,135.09
2023-04-02T08:43:32.487Z,138.93
2023-04-02T08:44:32.529Z,137.43
2023-04-02T08:45:32.558Z,134.88
2023-04-02T08:46:32.701Z,135.81
2023-04-02T08:47:32.633Z,132.34
2023-04-02T08:48:33.271Z,133.53
2023-04-02T08:49:32.696Z,136.94
2023-04-02T08:50:32.702Z,139.49
2023-04-02T08:51:32.730Z,140.95
2023-04-02T08:52:32.749Z,145.37
2023-04-02T08:53:32.793Z,149.48
2023-04-02T08:54:32.815Z,155.18
2023-04-02T08:55:33.149Z,159.78
2023-04-02T08:56:32.876Z,160.57
2023-04-02T08:57:33.070Z,164.83
2023-04-02T08:58:32.938Z,164.34
2023-04-02T08:59:32.980Z,168.81
2023-04-02T09:00:32.985Z,161.53
2023-04-02T09:01:33.004Z,157.83
2023-04-02T09:02:33.086Z,149.83
2023-04-02T09:03:33.023Z,152.01
2023-04-02T09:04:33.074Z,153.24
2023-04-02T09:05:33.414Z,155.51
2023-04-02T09:06:33.096Z,157.96
2023-04-02T09:07:33.136Z,162.64
2023-04-02T09:08:33.197Z,167.18
2023-04-02T09:09:33.201Z,167.27
2023-04-02T09:10:33.241Z,166.97
2023-04-02T09:11:33.269Z,170.36
2023-04-02T09:12:33.299Z,171.62
2023-04-02T09:13:33.352Z,170.83
2023-04-02T09:14:33.368Z,170.81
2023-04-02T09:15:33.626Z,170.82
2023-04-02T09:16:33.433Z,173.31
2023-04-02T09:17:42.792Z,174.13
2023-04-02T09:18:34.450Z,174.27
2023-04-02T09:19:33.425Z,174.80
2023-04-02T09:20:33.396Z,175.41
2023-04-02T09:21:33.344Z,174.32
2023-04-02T09:22:33.307Z,178.06
2023-04-02T09:23:33.321Z,174.76
2023-04-02T09:24:33.283Z,175.01
2023-04-02T09:25:33.516Z,175.92
2023-04-02T09:26:33.219Z,179.50
2023-04-02T09:27:33.208Z,179.14
2023-04-02T09:28:33.220Z,177.89
2023-04-02T09:29:33.174Z,178.10
2023-04-02T09:30:33.248Z,180.32
2023-04-02T09:31:33.291Z,180.33
2023-04-02T09:32:33.225Z,178.88
2023-04-02T09:33:33.271Z,178.65
2023-04-02T09:34:33.315Z,179.22
2023-04-02T09:35:33.310Z,181.05
2023-04-02T09:36:33.412Z,180.34
2023-04-02T09:37:33.414Z,176.32
2023-04-02T09:38:33.408Z,177.78
2023-04-02T09:39:33.427Z,180.99
2023-04-02T09:40:33.452Z,178.85
2023-04-02T09:41:35.685Z,178.04
2023-04-02T09:42:33.458Z,180.73
2023-04-02T09:43:33.436Z,181.25
2023-04-02T09:44:33.397Z,181.72
2023-04-02T09:45:33.556Z,180.87
2023-04-02T09:46:33.386Z,180.51
2023-04-02T09:47:33.321Z,179.90
2023-04-02T09:48:33.305Z,176.11
2023-04-02T09:49:33.269Z,176.22
2023-04-02T09:50:33.268Z,175.83
2023-04-02T09:51:33.223Z,176.17
2023-04-02T09:52:33.202Z,173.16
2023-04-02T09:53:33.172Z,176.42
2023-04-02T09:54:33.119Z,172.07
2023-04-02T09:55:33.092Z,173.86
2023-04-02T09:56:33.093Z,172.26
2023-04-02T09:57:33.106Z,170.03
2023-04-02T09:58:33.046Z,171.95
2023-04-02T09:59:33.020Z,171.81
2023-04-02T10:00:32.985Z,173.87
2023-04-02T10:01:32.995Z,168.31
2023-04-02T10:02:33.008Z,170.97
2023-04-02T10:03:32.921Z,165.41
2023-04-02T10:04:32.930Z,165.23
2023-04-02T10:05:40.493Z,160.00
2023-04-02T10:06:33.848Z,160.12
2023-04-02T10:07:32.799Z,159.87
2023-04-02T10:08:32.783Z,155.26
2023-04-02T10:09:32.825Z,151.93
2023-04-02T10:10:32.801Z,154.00
2023-04-02T10:11:43.790Z,149.77
2023-04-02T10:12:33.702Z,150.12
2023-04-02T10:13:32.697Z,151.41
2023-04-02T10:14:32.636Z,153.12
2023-04-02T10:15:32.612Z,155.84
2023-04-02T10:16:32.663Z,157.77
2023-04-02T10:17:32.587Z,161.28
2023-04-02T10:18:32.528Z,161.75
2023-04-02T10:19:32.552Z,161.85
2023-04-02T10:20:36.330Z,160.65
2023-04-02T10:21:33.475Z,160.85
2023-04-02T10:22:32.435Z,160.08
2023-04-02T10:23:32.407Z,158.46
2023-04-02T10:24:32.390Z,157.44
2023-04-02T10:25:32.365Z,154.38
2023-04-02T10:26:33.245Z,151.06
2023-04-02T10:27:32.274Z,150.37
2023-04-02T10:28:32.262Z,153.85
2023-04-02T10:29:32.233Z,156.45
2023-04-02T10:30:32.203Z,152.72
2023-04-02T10:31:32.202Z,150.99
2023-04-02T10:32:32.240Z,152.96
2023-04-02T10:33:32.305Z,143.61
2023-04-02T10:34:32.325Z,139.93
2023-04-02T10:35:32.412Z,137.99
2023-04-02T10:36:32.350Z,140.45
2023-04-02T10:37:32.362Z,136.96
2023-04-02T10:38:32.388Z,129.72
2023-04-02T10:39:32.435Z,128.71
2023-04-02T10:40:32.430Z,125.36
2023-04-02T10:41:32.459Z,126.06
2023-04-02T10:42:32.484Z,126.55
2023-04-02T10:43:32.507Z,133.19
2023-04-02T10:44:32.543Z,134.66
2023-04-02T10:45:32.594Z,138.00
2023-04-02T10:46:32.666Z,138.14
2023-04-02T10:47:32.649Z,142.36
2023-04-02T10:48:32.686Z,138.91
2023-04-02T10:49:32.725Z,141.87
2023-04-02T10:50:32.751Z,137.66
2023-04-02T10:51:32.782Z,140.15
2023-04-02T10:52:32.808Z,139.80
2023-04-02T10:53:32.866Z,139.40
2023-04-02T10:54:32.886Z,138.62
2023-04-02T10:55:32.976Z,143.58
2023-04-02T10:56:44.152Z,143.82
2023-04-02T10:57:34.097Z,143.99
2023-04-02T10:58:32.904Z,144.33
2023-04-02T10:59:32.914Z,144.92
2023-04-02T11:00:32.876Z,144.24
2023-04-02T11:01:32.942Z,145.00
2023-04-02T11:02:32.922Z,147.02
2023-04-02T11:03:32.874Z,144.10
2023-04-02T11:04:32.813Z,144.72
2023-04-02T11:05:32.827Z,143.24
2023-04-02T11:06:32.766Z,146.64
2023-04-02T11:07:32.742Z,144.15
2023-04-02T11:08:32.722Z,144.46
2023-04-02T11:09:32.746Z,143.45
2023-04-02T11:10:32.759Z,145.74
2023-04-02T11:11:32.823Z,144.25
2023-04-02T11:12:32.852Z,144.22
2023-04-02T11:13:32.905Z,143.75
2023-04-02T11:14:32.909Z,146.68
2023-04-02T11:15:32.943Z,148.24
2023-04-02T11:16:33.038Z,152.74
2023-04-02T11:17:33.014Z,153.95
2023-04-02T11:18:33.039Z,150.13
2023-04-02T11:19:33.077Z,145.71
2023-04-02T11:20:33.103Z,143.57
2023-04-02T11:21:33.114Z,141.21
2023-04-02T11:22:33.162Z,145.04
2023-04-02T11:23:33.199Z,141.41
2023-04-02T11:24:33.206Z,141.34
2023-04-02T11:25:33.439Z,141.44
2023-04-02T11:26:33.288Z,143.39
2023-04-02T11:27:33.303Z,145.94
2023-04-02T11:28:33.337Z,145.41
2023-04-02T11:29:33.365Z,144.93
2023-04-02T11:30:33.394Z,143.82
2023-04-02T11:31:33.507Z,141.55
2023-04-02T11:32:33.450Z,141.86
2023-04-02T11:33:38.144Z,143.01
2023-04-02T11:34:34.410Z,143.11
2023-04-02T11:35:33.583Z,143.14
2023-04-02T11:36:33.330Z,142.71
2023-04-02T11:37:33.352Z,138.09
2023-04-02T11:38:33.258Z,139.50
2023-04-02T11:39:33.271Z,137.15
2023-04-02T11:40:33.243Z,134.86
2023-04-02T11:41:33.236Z,136.76
2023-04-02T11:42:33.160Z,135.22
2023-04-02T11:43:33.238Z,136.43
2023-04-02T11:44:33.138Z,133.83
2023-04-02T11:45:40.175Z,137.62
2023-04-02T11:46:34.167Z,137.86
2023-04-02T11:47:33.067Z,138.88
2023-04-02T11:48:33.046Z,139.43
2023-04-02T11:49:33.032Z,138.23
2023-04-02T11:50:32.989Z,125.92
2023-04-02T11:51:32.952Z,120.46
2023-04-02T11:52:32.960Z,117.89
2023-04-02T11:53:32.953Z,119.49
2023-04-02T11:54:32.902Z,119.94
2023-04-02T11:55:32.907Z,124.49
2023-04-02T11:56:32.848Z,117.01
2023-04-02T11:57:32.951Z,118.55
2023-04-02T11:58:32.932Z,113.88
2023-04-02T11:59:32.985Z,115.80
2023-04-02T12:00:33.219Z,115.61
2023-04-02T12:01:33.013Z,115.29
2023-04-02T12:02:33.130Z,121.47
2023-04-02T12:03:33.067Z,117.72
2023-04-02T12:04:33.101Z,119.00
2023-04-02T12:05:33.265Z,113.83
2023-04-02T12:06:33.169Z,122.41
2023-04-02T12:07:33.203Z,127.32
2023-04-02T12:08:33.236Z,129.20
2023-04-02T12:09:33.255Z,128.85
2023-04-02T12:10:33.296Z,136.52
2023-04-02T12:11:33.297Z,135.25
2023-04-02T12:12:33.286Z,138.94
2023-04-02T12:13:33.334Z,136.93
2023-04-02T12:14:33.348Z,139.54
2023-04-02T12:15:33.528Z,139.13
2023-04-02T12:16:33.463Z,136.40
2023-04-02T12:17:33.471Z,141.80
2023-04-02T12:18:33.482Z,141.22
2023-04-02T12:19:33.490Z,144.51
2023-04-02T12:20:33.614Z,138.35
2023-04-02T12:21:33.535Z,141.63
2023-04-02T12:22:33.637Z,141.54
2023-04-02T12:23:33.593Z,142.31
2023-04-02T12:24:33.637Z,137.57
2023-04-02T12:25:33.706Z,138.78
2023-04-02T12:26:33.685Z,137.69
2023-04-02T12:27:33.720Z,135.90
2023-04-02T12:28:33.772Z,134.42